Caseyville, IL (62232)

06:54 CDT le 03 mai 2015 (GMT -0500)
New Goose | | Change Station
CLOSE
Current Station
Stations météorologiques personnelles
Location: Fairview Heights, IL
Altitude: 587 ft
Stations météo à proximité

Alt. 587 ft 38.59 °N, 90.02 °W | Updated 1 second ago

Partiellement nuageux
Partiellement nuageux
58.5 ° F
Paraît 58.5 ° F
N
0.0
Vent Variable Vent de SE
Gusts 0.0 mph

Aujourd'hui
Haut(e) -- | Bas -- ° F
--% Risque de précip.
Hier
Haut(e) -- | Bas -- ° F
Precip. -- pouce
6:00 AM 7:53 PM
Pleine lune, 100% visible
Pression 29.99 pouce
Visibilité 10.0 Miles terrestres
Nuages Peu 11000 ft
Point de rosée 47 ° F
Humidité 66%
Précipitations 0.00 pouce
Profondeur de la couche neigeuse Non disponible.
UV 0.0 sur 12
Pollen 10.30 sur 12
Qualité de l'air Non disponible.
Flu Activity Local Activity
METAR KCPS 031053Z AUTO 15005KT 10SM FEW110 14/08 A3000 RMK AO2 SLP156 T01440078

More Conditions Fewer Conditions

Pression 29.99 pouce
Visibilité 10.0 Miles terrestres
Nuages Peu 11000 ft
Point de rosée 47 ° F
Humidité 66%
Précipitations 0.00 pouce
Profondeur de la couche neigeuse Non disponible.
UV 0.0 sur 12
Pollen 10.30 sur 12
Qualité de l'air Non disponible.
Flu Activity Local Activity
METAR KCPS 031053Z AUTO 15005KT 10SM FEW110 14/08 A3000 RMK AO2 SLP156 T01440078

More Conditions Fewer Conditions

Nepal has a long way to go to dig out and rebuild from a devastating earthquake. We have teamed up with several charities and organizations to make contributing to the relief effort as easy as possible.
How you can help: Portlight Strategies | Red Cross

10-Day Weather Forecast

Almanac

Astronomie

May. 03, 2015 Lever Coucher
Temps réel
Crépuscule civil
Crépuscule nautique
Crépuscule astronomique
Lune
Durée de lumière visible
Longueur du jour
Tomorrow will be .
, % of the Moon is Illuminated

Extrêmes aujourd'hui

State Highs State Lows

Community

WunderPhotos

Upload Photos

1,818,187 Photos téléchargées !

WunderBlogs® & News

Nearby

Qualité de l'air

  Qualité de l'air Indice de la qualité de l'air Polluant
Not available.

Épaisseur de neige

Station Depth Altitude

Activité sismique

Ville Distance Mag. Time & Date
Minimum magnitude displayed is 2.5.

Températures des eaux côtières

Lieu Température

Stations

Stations météo à proximité

Emplacement de la station Température Refroidissement éolien Point de rosée Humidité Vent Precip. Alt. Mise à jour Type